createdAt,value
2019-04-10T00:02:26.046Z,12.40
2019-04-10T00:04:57.864Z,11.85
2019-04-10T00:07:29.763Z,13.78
2019-04-10T00:10:03.472Z,13.60
2019-04-10T00:12:35.980Z,15.28
2019-04-10T00:15:09.283Z,15.70
2019-04-10T00:17:42.930Z,18.10
2019-04-10T00:20:16.270Z,18.12
2019-04-10T00:22:48.661Z,22.90
2019-04-10T00:25:20.939Z,26.30
2019-04-10T00:27:52.752Z,28.10
2019-04-10T00:30:25.062Z,26.23
2019-04-10T00:32:56.853Z,25.08
2019-04-10T00:35:29.718Z,24.25
2019-04-10T00:38:01.736Z,25.75
2019-04-10T00:40:33.465Z,22.52
2019-04-10T00:43:06.511Z,26.25
2019-04-10T00:45:38.458Z,24.67
2019-04-10T00:48:10.377Z,25.60
2019-04-10T00:50:42.515Z,25.70
2019-04-10T00:53:14.395Z,26.73
2019-04-10T00:55:46.195Z,25.35
2019-04-10T00:58:18.331Z,24.55
2019-04-10T01:00:50.449Z,26.25
2019-04-10T01:03:40.689Z,25.40
2019-04-10T01:06:14.279Z,26.02
2019-04-10T01:08:45.944Z,23.27
2019-04-10T01:11:18.990Z,26.17
2019-04-10T01:13:51.690Z,25.45
2019-04-10T01:16:23.571Z,24.80
2019-04-10T01:18:55.523Z,26.15
2019-04-10T01:21:28.447Z,26.90
2019-04-10T01:24:01.465Z,24.63
2019-04-10T01:26:33.255Z,21.60
2019-04-10T01:29:05.219Z,24.57
2019-04-10T01:31:37.289Z,24.30
2019-04-10T01:34:09.469Z,23.55
2019-04-10T01:36:41.480Z,23.05
2019-04-10T01:39:15.875Z,27.60
2019-04-10T01:41:48.059Z,41.92
2019-04-10T01:44:20.512Z,41.85
2019-04-10T01:46:52.958Z,38.65
2019-04-10T01:49:24.702Z,38.38
2019-04-10T01:51:57.429Z,37.58
2019-04-10T01:54:29.148Z,31.73
2019-04-10T01:57:00.853Z,30.37
2019-04-10T01:59:34.155Z,29.77
2019-04-10T02:02:07.500Z,27.00
2019-04-10T02:04:39.624Z,23.85
2019-04-10T02:07:11.617Z,27.58
2019-04-10T02:09:43.566Z,23.18
2019-04-10T02:12:16.660Z,21.35
2019-04-10T02:14:48.841Z,22.22
2019-04-10T02:17:20.647Z,17.25
2019-04-10T02:19:52.239Z,20.15
2019-04-10T02:22:24.924Z,21.65
2019-04-10T02:24:57.658Z,19.92
2019-04-10T02:27:30.109Z,19.12
2019-04-10T02:30:02.411Z,18.60
2019-04-10T02:32:34.543Z,17.70
2019-04-10T02:35:10.548Z,14.73
2019-04-10T02:37:41.729Z,16.85
2019-04-10T02:40:15.053Z,16.87
2019-04-10T02:42:47.444Z,17.75
2019-04-10T02:45:19.487Z,19.17
2019-04-10T02:47:52.772Z,19.12
2019-04-10T02:50:25.268Z,21.15
2019-04-10T02:52:59.061Z,22.00
2019-04-10T02:55:31.377Z,21.70
2019-04-10T02:58:03.146Z,24.37
2019-04-10T03:00:36.017Z,22.77
2019-04-10T03:03:09.351Z,25.15
2019-04-10T03:05:42.609Z,25.43
2019-04-10T03:08:15.812Z,26.65
2019-04-10T03:10:53.728Z,25.65
2019-04-10T03:13:21.856Z,24.75
2019-04-10T03:15:53.697Z,25.57
2019-04-10T03:18:25.904Z,27.25
2019-04-10T03:20:58.448Z,26.82
2019-04-10T03:23:31.625Z,27.48
2019-04-10T03:26:03.596Z,26.37
2019-04-10T03:28:35.546Z,30.77
2019-04-10T03:31:07.979Z,27.90
2019-04-10T03:33:47.444Z,24.18
2019-04-10T03:36:19.096Z,25.65
2019-04-10T03:38:58.554Z,24.65
2019-04-10T03:41:24.149Z,23.87
2019-04-10T03:43:56.405Z,25.50
2019-04-10T03:46:28.257Z,30.15
2019-04-10T03:49:01.154Z,24.67
2019-04-10T03:51:32.988Z,23.40
2019-04-10T03:54:04.990Z,24.60
2019-04-10T03:56:38.064Z,29.75
2019-04-10T03:59:09.796Z,24.55
2019-04-10T04:01:42.978Z,23.67
2019-04-10T04:04:17.514Z,21.10
2019-04-10T04:06:53.603Z,21.15
2019-04-10T04:09:29.381Z,22.58
2019-04-10T04:12:02.386Z,21.52
2019-04-10T04:14:34.688Z,23.42
2019-04-10T04:17:06.735Z,25.50
2019-04-10T04:19:38.389Z,35.55
2019-04-10T04:22:10.526Z,29.82
2019-04-10T04:24:42.355Z,29.27
2019-04-10T04:27:15.306Z,31.68
2019-04-10T04:29:47.529Z,31.30
2019-04-10T04:32:19.671Z,23.50
2019-04-10T04:34:52.166Z,27.98
2019-04-10T04:37:25.769Z,29.80
2019-04-10T04:39:58.355Z,28.15
2019-04-10T04:42:30.713Z,29.70
2019-04-10T04:45:03.087Z,30.08
2019-04-10T04:47:35.649Z,29.60
2019-04-10T04:50:07.779Z,30.23
2019-04-10T04:52:39.548Z,31.75
2019-04-10T04:55:12.233Z,34.58
2019-04-10T04:57:44.967Z,31.73
2019-04-10T05:00:17.452Z,32.58
2019-04-10T05:02:49.631Z,32.93
2019-04-10T05:05:21.494Z,30.92
2019-04-10T05:07:59.273Z,35.03
2019-04-10T05:10:26.559Z,32.67
2019-04-10T05:12:58.612Z,32.30
2019-04-10T05:15:31.094Z,33.80
2019-04-10T05:18:04.061Z,33.23
2019-04-10T05:20:44.226Z,35.13
2019-04-10T05:23:10.273Z,35.80
2019-04-10T05:25:42.008Z,35.33
2019-04-10T05:28:13.670Z,37.45
2019-04-10T05:30:45.522Z,37.48
2019-04-10T05:33:17.381Z,38.13
2019-04-10T05:35:49.351Z,38.80
2019-04-10T05:38:21.509Z,39.05
2019-04-10T05:40:53.171Z,38.48
2019-04-10T05:43:26.006Z,39.60
2019-04-10T05:45:57.601Z,38.98
2019-04-10T05:48:29.662Z,38.58
2019-04-10T05:51:05.635Z,37.85
2019-04-10T05:53:35.143Z,41.02
2019-04-10T05:56:07.090Z,40.15
2019-04-10T05:58:39.058Z,40.10
2019-04-10T06:01:11.543Z,36.60
2019-04-10T06:03:43.572Z,34.67
2019-04-10T06:06:15.156Z,37.95
2019-04-10T06:08:47.058Z,38.67
2019-04-10T06:11:18.865Z,46.02
2019-04-10T06:13:50.822Z,47.80
2019-04-10T06:16:22.479Z,50.83
2019-04-10T06:18:55.539Z,55.98
2019-04-10T06:21:28.482Z,56.65
2019-04-10T06:24:00.412Z,56.48
2019-04-10T06:26:32.721Z,49.53
2019-04-10T06:29:06.798Z,45.45
2019-04-10T06:31:39.074Z,42.33
2019-04-10T06:34:13.824Z,40.80
2019-04-10T06:36:44.434Z,37.15
2019-04-10T06:39:16.609Z,31.70
2019-04-10T06:41:48.781Z,33.63
2019-04-10T06:44:21.777Z,34.33
2019-04-10T06:46:54.975Z,29.35
2019-04-10T06:49:26.968Z,29.55
2019-04-10T06:51:59.686Z,22.58
2019-04-10T06:54:31.451Z,17.25
2019-04-10T06:57:03.089Z,17.92
2019-04-10T06:59:34.967Z,17.48
2019-04-10T07:02:17.707Z,22.65
2019-04-10T07:04:45.986Z,18.10
2019-04-10T07:07:18.122Z,16.12
2019-04-10T07:09:49.602Z,17.57
2019-04-10T07:12:24.405Z,14.60
2019-04-10T07:14:58.201Z,14.15
2019-04-10T07:17:29.439Z,13.10
2019-04-10T07:20:01.985Z,11.60
2019-04-10T07:22:33.669Z,11.88
2019-04-10T07:25:09.307Z,11.20
2019-04-10T07:27:41.458Z,10.15
2019-04-10T07:30:14.885Z,9.83
2019-04-10T07:32:49.012Z,9.65
2019-04-10T07:35:21.812Z,8.05
2019-04-10T07:37:56.682Z,6.90
2019-04-10T07:40:37.165Z,7.85
2019-04-10T07:43:09.069Z,6.85
2019-04-10T07:45:41.614Z,7.75
2019-04-10T07:48:13.358Z,7.45
2019-04-10T07:50:46.971Z,8.58
2019-04-10T07:53:18.939Z,10.58
2019-04-10T07:56:02.321Z,11.73
2019-04-10T07:58:24.076Z,10.98
2019-04-10T08:00:56.759Z,13.08
2019-04-10T08:03:28.848Z,13.43
2019-04-10T08:06:02.303Z,13.25
2019-04-10T08:08:34.131Z,19.00
2019-04-10T08:11:07.166Z,15.08
2019-04-10T08:13:38.841Z,14.98
2019-04-10T08:16:10.690Z,13.78
2019-04-10T08:18:43.474Z,15.60
2019-04-10T08:21:15.610Z,14.87
2019-04-10T08:23:48.508Z,10.53
2019-04-10T08:26:21.349Z,9.75
2019-04-10T08:28:53.792Z,8.33
2019-04-10T08:31:25.522Z,7.00
2019-04-10T08:33:57.178Z,6.40
2019-04-10T08:36:29.678Z,5.85
2019-04-10T08:39:02.421Z,6.17
2019-04-10T08:41:35.138Z,5.75
2019-04-10T08:44:06.811Z,5.95
2019-04-10T08:46:38.427Z,6.03
2019-04-10T08:49:10.281Z,5.50
2019-04-10T08:51:41.880Z,5.75
2019-04-10T08:54:14.104Z,5.72
2019-04-10T08:56:46.980Z,5.00
2019-04-10T08:59:19.315Z,5.40
2019-04-10T09:01:50.845Z,6.33
2019-04-10T09:04:22.463Z,8.85
2019-04-10T09:06:54.338Z,11.53
2019-04-10T09:09:26.187Z,12.05
2019-04-10T09:11:57.946Z,13.80
2019-04-10T09:14:29.883Z,13.65
2019-04-10T09:17:02.819Z,13.85
2019-04-10T09:19:34.663Z,18.32
2019-04-10T09:22:06.415Z,20.12
2019-04-10T09:24:38.393Z,19.95
2019-04-10T09:27:10.956Z,20.97
2019-04-10T09:29:42.906Z,20.75
2019-04-10T09:32:14.972Z,20.70
2019-04-10T09:34:48.122Z,21.40
2019-04-10T09:37:20.132Z,15.95
2019-04-10T09:39:53.445Z,15.40
2019-04-10T09:42:25.634Z,13.78
2019-04-10T09:44:57.475Z,14.23
2019-04-10T09:47:30.316Z,14.03
2019-04-10T09:50:02.409Z,13.53
2019-04-10T09:52:35.621Z,12.65
2019-04-10T09:55:08.106Z,11.93
2019-04-10T09:57:40.665Z,11.78
2019-04-10T10:00:14.032Z,11.12
2019-04-10T10:02:47.432Z,11.43
2019-04-10T10:05:20.258Z,12.40
2019-04-10T10:07:54.468Z,11.78
2019-04-10T10:10:25.839Z,11.05
2019-04-10T10:12:57.552Z,10.60
2019-04-10T10:15:29.389Z,11.88
2019-04-10T10:18:01.456Z,10.48
2019-04-10T10:20:35.614Z,10.90
2019-04-10T10:23:07.567Z,11.55
2019-04-10T10:25:39.467Z,10.25
2019-04-10T10:28:11.848Z,11.22
2019-04-10T10:30:43.998Z,10.50
2019-04-10T10:33:15.721Z,9.65
2019-04-10T10:35:49.503Z,12.82
2019-04-10T10:38:21.454Z,11.55
2019-04-10T10:40:53.109Z,11.55
2019-04-10T10:43:25.179Z,12.25
2019-04-10T10:45:56.940Z,12.05
2019-04-10T10:48:29.579Z,27.77
2019-04-10T10:51:02.427Z,16.15
2019-04-10T10:53:34.595Z,13.28
2019-04-10T10:56:06.438Z,12.40
2019-04-10T10:58:38.075Z,12.65
2019-04-10T11:01:09.972Z,15.05
2019-04-10T11:03:42.570Z,6.75
2019-04-10T11:06:14.966Z,9.63
2019-04-10T11:08:47.842Z,8.35
2019-04-10T11:11:20.034Z,8.70
2019-04-10T11:13:51.739Z,7.17
2019-04-10T11:16:23.554Z,6.80
2019-04-10T11:18:55.209Z,6.20
2019-04-10T11:21:27.452Z,6.67
2019-04-10T11:24:01.022Z,6.28
2019-04-10T11:26:33.646Z,10.88
2019-04-10T11:29:05.713Z,6.22
2019-04-10T11:31:39.609Z,6.50
2019-04-10T11:34:11.481Z,5.35
2019-04-10T11:36:44.055Z,18.07
2019-04-10T11:39:23.371Z,5.80
2019-04-10T11:41:50.559Z,4.50
2019-04-10T11:44:22.298Z,4.17
2019-04-10T11:46:55.641Z,4.35
2019-04-10T11:49:29.534Z,3.67
2019-04-10T11:52:03.111Z,3.20
2019-04-10T11:54:40.359Z,3.10
2019-04-10T11:57:09.948Z,4.28
2019-04-10T11:59:41.257Z,3.80
2019-04-10T12:02:14.426Z,11.93
2019-04-10T12:04:53.876Z,4.00
2019-04-10T12:07:52.639Z,4.70
2019-04-10T12:12:27.893Z,3.98
2019-04-10T12:15:01.582Z,3.70
2019-04-10T12:17:35.998Z,4.17
2019-04-10T12:20:08.956Z,3.30
2019-04-10T12:22:40.755Z,4.78
2019-04-10T12:25:12.940Z,4.15
2019-04-10T12:27:45.347Z,47.10
2019-04-10T12:30:17.713Z,4.12
2019-04-10T12:32:49.369Z,4.45
2019-04-10T12:35:20.931Z,4.70
2019-04-10T12:38:02.254Z,3.72
2019-04-10T12:40:26.669Z,4.53
2019-04-10T12:42:58.809Z,3.47
2019-04-10T12:45:30.799Z,3.67
2019-04-10T12:48:02.652Z,3.90
2019-04-10T12:50:34.526Z,3.70
2019-04-10T12:53:07.331Z,5.47
2019-04-10T12:55:38.973Z,4.30
2019-04-10T12:58:17.012Z,3.95
2019-04-10T13:00:44.822Z,15.98
2019-04-10T13:03:16.798Z,5.62
2019-04-10T13:05:49.395Z,7.42
2019-04-10T13:08:28.807Z,6.22
2019-04-10T13:10:56.082Z,4.80
2019-04-10T13:13:28.622Z,4.40
2019-04-10T13:16:01.484Z,4.30
2019-04-10T13:18:32.967Z,5.35
2019-04-10T13:21:04.510Z,4.10
2019-04-10T13:23:37.001Z,39.92
2019-04-10T13:26:10.895Z,5.35
2019-04-10T13:28:43.467Z,4.60
2019-04-10T13:31:15.134Z,3.85
2019-04-10T13:33:46.941Z,5.65
2019-04-10T13:36:19.674Z,4.20
2019-04-10T13:38:51.225Z,5.33
2019-04-10T13:41:24.105Z,5.95
2019-04-10T13:43:55.756Z,7.87
2019-04-10T13:46:28.941Z,21.37
2019-04-10T13:49:01.869Z,3.72
2019-04-10T13:51:33.438Z,4.58
2019-04-10T13:54:06.249Z,5.53
2019-04-10T13:56:38.025Z,6.25
2019-04-10T13:59:10.961Z,8.78
2019-04-10T14:01:43.888Z,9.38
2019-04-10T14:04:16.658Z,7.10
2019-04-10T14:06:49.302Z,9.88
2019-04-10T14:09:34.407Z,7.15
2019-04-10T14:11:54.435Z,1.80
2019-04-10T14:14:26.721Z,1.70
2019-04-10T14:16:59.324Z,2.50
2019-04-10T14:19:31.869Z,3.02
2019-04-10T14:22:03.500Z,2.60
2019-04-10T14:24:42.851Z,4.12
2019-04-10T14:27:16.266Z,8.55
2019-04-10T14:29:49.083Z,9.00
2019-04-10T14:32:25.371Z,9.90
2019-04-10T14:34:57.119Z,8.28
2019-04-10T14:37:29.551Z,10.18
2019-04-10T14:40:02.150Z,10.65
2019-04-10T14:42:34.895Z,10.93
2019-04-10T14:45:09.042Z,10.75
2019-04-10T14:47:41.323Z,6.37
2019-04-10T14:50:13.685Z,19.35
2019-04-10T14:52:45.770Z,6.37
2019-04-10T14:55:20.299Z,7.45
2019-04-10T14:57:51.028Z,7.95
2019-04-10T15:00:36.964Z,7.80
2019-04-10T15:03:08.772Z,9.68
2019-04-10T15:05:47.789Z,10.08
2019-04-10T15:08:15.505Z,10.23
2019-04-10T15:10:47.426Z,10.13
2019-04-10T15:13:21.236Z,11.18
2019-04-10T15:15:52.569Z,10.40
2019-04-10T15:18:24.664Z,11.53
2019-04-10T15:20:58.571Z,9.70
2019-04-10T15:23:30.233Z,8.18
2019-04-10T15:26:02.187Z,7.40
2019-04-10T15:28:34.028Z,7.10
2019-04-10T15:31:06.845Z,8.15
2019-04-10T15:33:39.415Z,39.55
2019-04-10T15:36:11.578Z,6.25
2019-04-10T15:38:44.262Z,7.35
2019-04-10T15:41:16.925Z,5.90
2019-04-10T15:43:50.159Z,7.67
2019-04-10T15:46:21.662Z,4.75
2019-04-10T15:48:53.423Z,5.33
2019-04-10T15:51:25.274Z,5.70
2019-04-10T15:53:57.125Z,5.60
2019-04-10T15:56:29.710Z,6.30
2019-04-10T15:59:01.370Z,4.65
2019-04-10T16:01:33.274Z,5.30
2019-04-10T16:04:05.271Z,4.78
2019-04-10T16:06:37.589Z,5.10
2019-04-10T16:09:10.445Z,5.20
2019-04-10T16:11:47.172Z,5.40
2019-04-10T16:14:23.304Z,5.78
2019-04-10T16:17:09.009Z,6.55
2019-04-10T16:19:51.367Z,5.90
2019-04-10T16:22:31.209Z,6.50
2019-04-10T16:25:05.355Z,6.70
2019-04-10T16:27:41.293Z,6.67
2019-04-10T16:30:15.960Z,7.35
2019-04-10T16:32:48.589Z,41.65
2019-04-10T16:35:21.084Z,34.23
2019-04-10T16:37:53.800Z,9.55
2019-04-10T16:40:26.957Z,17.35
2019-04-10T16:42:59.353Z,12.75
2019-04-10T16:45:31.196Z,9.75
2019-04-10T16:48:03.135Z,12.70
2019-04-10T16:50:36.400Z,13.08
2019-04-10T16:53:09.627Z,12.18
2019-04-10T16:55:43.113Z,8.35
2019-04-10T16:58:15.859Z,6.53
2019-04-10T17:00:47.749Z,6.65
2019-04-10T17:03:20.118Z,6.37
2019-04-10T17:05:53.550Z,6.55
2019-04-10T17:08:25.287Z,8.03
2019-04-10T17:10:58.808Z,5.65
2019-04-10T17:13:30.818Z,5.00
2019-04-10T17:16:02.593Z,5.37
2019-04-10T17:18:35.038Z,4.60
2019-04-10T17:21:06.788Z,4.40
2019-04-10T17:23:38.700Z,4.17
2019-04-10T17:26:10.798Z,3.72
2019-04-10T17:28:42.782Z,3.30
2019-04-10T17:31:16.138Z,4.10
2019-04-10T17:33:50.107Z,3.80
2019-04-10T17:36:22.962Z,5.17
2019-04-10T17:38:55.228Z,7.33
2019-04-10T17:41:28.277Z,5.45
2019-04-10T17:44:02.045Z,4.10
2019-04-10T17:46:33.628Z,3.65
2019-04-10T17:49:05.789Z,3.80
2019-04-10T17:51:38.467Z,3.40
2019-04-10T17:54:11.777Z,3.00
2019-04-10T17:56:44.408Z,3.40
2019-04-10T17:59:16.273Z,3.17
2019-04-10T18:01:47.906Z,3.67
2019-04-10T18:04:20.076Z,3.80
2019-04-10T18:06:52.867Z,3.70
2019-04-10T18:09:26.108Z,3.83
2019-04-10T18:12:00.549Z,4.15
2019-04-10T18:14:31.345Z,4.42
2019-04-10T18:17:03.101Z,4.58
2019-04-10T18:19:34.959Z,9.30
2019-04-10T18:22:06.805Z,9.88
2019-04-10T18:24:38.376Z,4.37
2019-04-10T18:27:12.250Z,12.07
2019-04-10T18:29:45.283Z,6.35
2019-04-10T18:32:17.920Z,4.03
2019-04-10T18:34:50.040Z,3.83
2019-04-10T18:37:24.834Z,3.98
2019-04-10T18:39:54.943Z,4.45
2019-04-10T18:42:26.750Z,4.12
2019-04-10T18:44:59.494Z,4.30
2019-04-10T18:47:32.308Z,3.85
2019-04-10T18:50:05.614Z,3.65
2019-04-10T18:52:37.492Z,4.10
2019-04-10T18:55:09.279Z,3.77
2019-04-10T18:57:41.122Z,4.15
2019-04-10T19:00:15.766Z,4.10
2019-04-10T19:02:57.077Z,4.08
2019-04-10T19:05:31.906Z,6.95
2019-04-10T19:08:03.640Z,4.12
2019-04-10T19:10:36.774Z,4.10
2019-04-10T19:13:09.564Z,3.60
2019-04-10T19:15:41.746Z,3.47
2019-04-10T19:18:13.539Z,3.80
2019-04-10T19:20:45.097Z,3.98
2019-04-10T19:23:17.265Z,3.98
2019-04-10T19:25:49.181Z,4.05
2019-04-10T19:28:30.017Z,4.22
2019-04-10T19:31:12.835Z,11.38
2019-04-10T19:33:39.420Z,6.95
2019-04-10T19:36:11.976Z,5.40
2019-04-10T19:38:43.682Z,5.20
2019-04-10T19:41:25.210Z,6.00
2019-04-10T19:43:48.742Z,8.20
2019-04-10T19:46:21.558Z,4.40
2019-04-10T19:48:53.606Z,4.30
2019-04-10T19:51:25.900Z,4.65
2019-04-10T19:53:57.818Z,4.90
2019-04-10T19:56:30.678Z,4.70
2019-04-10T19:59:02.930Z,4.72
2019-04-10T20:01:34.535Z,4.70
2019-04-10T20:04:06.471Z,4.53
2019-04-10T20:06:38.607Z,4.45
2019-04-10T20:09:10.697Z,4.60
2019-04-10T20:11:48.633Z,4.65
2019-04-10T20:14:16.843Z,5.30
2019-04-10T20:16:49.383Z,4.83
2019-04-10T20:19:21.066Z,5.05
2019-04-10T20:21:52.768Z,4.35
2019-04-10T20:24:25.068Z,13.60
2019-04-10T20:26:56.901Z,5.28
2019-04-10T20:29:28.894Z,4.80
2019-04-10T20:32:01.649Z,4.97
2019-04-10T20:34:33.696Z,4.92
2019-04-10T20:37:09.258Z,5.37
2019-04-10T20:39:39.219Z,5.25
2019-04-10T20:42:11.007Z,5.35
2019-04-10T20:44:43.065Z,6.35
2019-04-10T20:47:15.764Z,6.97
2019-04-10T20:49:47.935Z,7.22
2019-04-10T20:52:19.993Z,7.70
2019-04-10T20:54:51.762Z,10.70
2019-04-10T20:57:23.781Z,13.70
2019-04-10T20:59:55.685Z,11.28
2019-04-10T21:02:28.519Z,25.48
2019-04-10T21:05:05.787Z,13.38
2019-04-10T21:07:33.924Z,25.57
2019-04-10T21:10:08.548Z,24.23
2019-04-10T21:12:40.314Z,13.88
2019-04-10T21:15:13.190Z,37.25
2019-04-10T21:17:44.850Z,21.97
2019-04-10T21:20:16.717Z,20.30
2019-04-10T21:22:49.346Z,13.28
2019-04-10T21:25:21.219Z,12.07
2019-04-10T21:27:54.655Z,12.25
2019-04-10T21:30:31.759Z,12.03
2019-04-10T21:33:12.133Z,12.60
2019-04-10T21:35:44.157Z,12.97
2019-04-10T21:38:15.815Z,11.90
2019-04-10T21:40:47.566Z,11.75
2019-04-10T21:43:20.281Z,11.70
2019-04-10T21:45:53.024Z,12.30
2019-04-10T21:48:24.985Z,12.50
2019-04-10T21:50:56.847Z,12.65
2019-04-10T21:53:31.669Z,11.35
2019-04-10T21:56:02.308Z,10.78
2019-04-10T21:58:34.529Z,10.53
2019-04-10T22:01:08.076Z,10.15
2019-04-10T22:03:39.841Z,10.10
2019-04-10T22:06:15.685Z,10.23
2019-04-10T22:08:54.811Z,9.90
2019-04-10T22:11:26.786Z,9.35
2019-04-10T22:13:58.742Z,9.55
2019-04-10T22:16:30.701Z,9.95
2019-04-10T22:19:03.740Z,9.73
2019-04-10T22:21:35.549Z,9.30
2019-04-10T22:24:07.404Z,8.45
2019-04-10T22:26:44.471Z,9.10
2019-04-10T22:29:15.530Z,8.60
2019-04-10T22:31:47.596Z,9.48
2019-04-10T22:34:19.206Z,9.45
2019-04-10T22:36:50.800Z,8.75
2019-04-10T22:39:23.081Z,9.78
2019-04-10T22:41:54.846Z,9.58
2019-04-10T22:44:34.748Z,8.85
2019-04-10T22:47:00.885Z,11.40
2019-04-10T22:49:32.877Z,9.28
2019-04-10T22:52:04.740Z,9.20
2019-04-10T22:54:36.647Z,9.58
2019-04-10T22:57:10.370Z,10.35
2019-04-10T22:59:42.485Z,9.13
2019-04-10T23:02:16.087Z,9.08
2019-04-10T23:04:47.819Z,9.33
2019-04-10T23:07:19.878Z,9.38
2019-04-10T23:09:52.578Z,9.20
2019-04-10T23:12:24.481Z,8.35
2019-04-10T23:14:55.968Z,9.00
2019-04-10T23:17:28.539Z,8.93
2019-04-10T23:20:00.697Z,9.03
2019-04-10T23:22:33.494Z,9.28
2019-04-10T23:25:07.972Z,8.90
2019-04-10T23:27:39.928Z,10.20
2019-04-10T23:30:13.490Z,9.90
2019-04-10T23:32:45.794Z,10.78
2019-04-10T23:35:19.018Z,11.48
2019-04-10T23:37:51.097Z,11.57
2019-04-10T23:40:23.082Z,12.13
2019-04-10T23:43:05.808Z,13.13
2019-04-10T23:45:29.459Z,13.25
2019-04-10T23:48:01.448Z,13.18
2019-04-10T23:50:34.413Z,12.85
2019-04-10T23:53:06.553Z,14.40
2019-04-10T23:55:38.578Z,13.15
2019-04-10T23:58:10.637Z,12.28
